createdAt,value
2018-03-24T00:00:34.085Z,5.40
2018-03-24T00:03:00.532Z,5.40
2018-03-24T00:05:27.741Z,6.03
2018-03-24T00:07:54.184Z,14.98
2018-03-24T00:10:20.640Z,18.87
2018-03-24T00:12:47.093Z,13.50
2018-03-24T00:15:14.354Z,8.77
2018-03-24T00:17:40.798Z,7.30
2018-03-24T00:20:07.262Z,19.25
2018-03-24T00:22:33.730Z,17.37
2018-03-24T00:25:00.174Z,19.70
2018-03-24T00:27:26.636Z,20.13
2018-03-24T00:29:53.098Z,15.73
2018-03-24T00:32:19.540Z,18.27
2018-03-24T00:34:46.001Z,16.62
2018-03-24T00:37:12.466Z,21.42
2018-03-24T00:39:38.925Z,21.50
2018-03-24T00:42:05.581Z,21.27
2018-03-24T00:44:32.089Z,17.90
2018-03-24T00:46:58.512Z,23.40
2018-03-24T00:49:24.999Z,20.30
2018-03-24T00:51:51.436Z,15.68
2018-03-24T00:54:17.921Z,18.95
2018-03-24T00:56:44.422Z,19.03
2018-03-24T00:59:10.919Z,15.45
2018-03-24T01:01:37.382Z,22.70
2018-03-24T01:04:03.861Z,13.35
2018-03-24T01:06:30.312Z,21.98
2018-03-24T01:08:56.805Z,17.00
2018-03-24T01:11:23.314Z,12.48
2018-03-24T01:13:49.737Z,18.23
2018-03-24T01:16:16.196Z,19.42
2018-03-24T01:18:42.641Z,19.02
2018-03-24T01:21:09.844Z,20.67
2018-03-24T01:23:36.253Z,20.52
2018-03-24T01:26:03.481Z,16.58
2018-03-24T01:28:29.954Z,19.77
2018-03-24T01:30:56.443Z,20.33
2018-03-24T01:33:22.879Z,21.65
2018-03-24T01:35:50.125Z,21.48
2018-03-24T01:38:16.579Z,24.05
2018-03-24T01:40:43.061Z,23.33
2018-03-24T01:43:09.529Z,24.27
2018-03-24T01:45:36.033Z,21.57
2018-03-24T01:48:02.506Z,23.55
2018-03-24T01:50:28.991Z,22.93
2018-03-24T01:52:55.417Z,20.13
2018-03-24T01:55:21.853Z,22.35
2018-03-24T01:57:48.288Z,22.02
2018-03-24T02:00:14.742Z,20.33
2018-03-24T02:02:41.192Z,16.20
2018-03-24T02:05:07.829Z,15.45
2018-03-24T02:07:35.187Z,17.80
2018-03-24T02:10:01.911Z,21.05
2018-03-24T02:12:28.532Z,23.62
2018-03-24T02:14:55.980Z,21.43
2018-03-24T02:17:22.634Z,19.53
2018-03-24T02:19:50.023Z,13.63
2018-03-24T02:22:16.723Z,18.65
2018-03-24T02:24:49.285Z,15.55
2018-03-24T02:27:15.991Z,8.75
2018-03-24T02:29:42.632Z,11.60
2018-03-24T02:32:10.001Z,14.77
2018-03-24T02:34:36.663Z,13.75
2018-03-24T02:37:03.327Z,8.30
2018-03-24T02:39:29.965Z,11.60
2018-03-24T02:41:56.597Z,11.43
2018-03-24T02:44:23.250Z,9.52
2018-03-24T02:46:49.906Z,8.85
2018-03-24T02:49:16.556Z,6.62
2018-03-24T02:51:43.953Z,4.90
2018-03-24T02:54:10.600Z,6.07
2018-03-24T02:56:37.217Z,4.00
2018-03-24T02:59:03.912Z,6.50
2018-03-24T03:01:30.546Z,4.57
2018-03-24T03:03:57.169Z,8.75
2018-03-24T03:06:23.814Z,5.95
2018-03-24T03:08:51.240Z,6.65
2018-03-24T03:11:17.936Z,9.80
2018-03-24T03:13:44.619Z,14.48
2018-03-24T03:16:11.292Z,14.00
2018-03-24T03:18:37.971Z,17.87
2018-03-24T03:21:05.412Z,21.20
2018-03-24T03:23:32.025Z,24.67
2018-03-24T03:25:58.675Z,20.62
2018-03-24T03:28:25.360Z,20.08
2018-03-24T03:30:52.832Z,15.70
2018-03-24T03:33:19.517Z,16.67
2018-03-24T03:35:46.160Z,14.15
2018-03-24T03:38:12.839Z,16.77
2018-03-24T03:40:39.496Z,15.55
2018-03-24T03:43:06.211Z,13.90
2018-03-24T03:45:32.955Z,16.45
2018-03-24T03:48:00.295Z,18.12
2018-03-24T03:50:27.719Z,18.25
2018-03-24T03:52:54.375Z,19.15
2018-03-24T03:55:21.045Z,20.10
2018-03-24T03:57:47.700Z,23.90
2018-03-24T04:00:14.395Z,20.65
2018-03-24T04:02:41.036Z,20.52
2018-03-24T04:05:08.419Z,13.98
2018-03-24T04:07:35.107Z,15.70
2018-03-24T04:10:01.775Z,13.50
2018-03-24T04:12:29.191Z,18.83
2018-03-24T04:14:55.859Z,12.40
2018-03-24T04:17:22.532Z,20.12
2018-03-24T04:19:49.223Z,30.60
2018-03-24T04:22:15.854Z,19.62
2018-03-24T04:24:42.498Z,20.67
2018-03-24T04:27:09.141Z,25.02
2018-03-24T04:29:36.576Z,26.37
2018-03-24T04:32:03.192Z,19.98
2018-03-24T04:34:29.870Z,16.55
2018-03-24T04:36:56.488Z,20.50
2018-03-24T04:39:23.127Z,32.90
2018-03-24T04:41:49.776Z,19.58
2018-03-24T04:44:16.429Z,14.75
2018-03-24T04:46:43.855Z,21.35
2018-03-24T04:49:10.540Z,26.67
2018-03-24T04:51:37.220Z,29.95
2018-03-24T04:54:03.863Z,22.50
2018-03-24T04:56:30.507Z,16.20
2018-03-24T04:58:57.160Z,27.45
2018-03-24T05:01:23.818Z,12.35
2018-03-24T05:03:50.480Z,20.08
2018-03-24T05:06:17.274Z,28.60
2018-03-24T05:08:43.941Z,14.80
2018-03-24T05:11:10.645Z,24.95
2018-03-24T05:13:37.307Z,19.50
2018-03-24T05:16:04.088Z,19.40
2018-03-24T05:18:31.496Z,19.77
2018-03-24T05:20:58.200Z,19.48
2018-03-24T05:23:25.040Z,23.80
2018-03-24T05:25:51.696Z,17.40
2018-03-24T05:28:18.371Z,24.75
2018-03-24T05:30:45.076Z,21.37
2018-03-24T05:33:11.798Z,21.92
2018-03-24T05:35:39.460Z,23.77
2018-03-24T05:38:06.851Z,17.27
2018-03-24T05:40:33.523Z,21.75
2018-03-24T05:43:00.179Z,19.60
2018-03-24T05:45:26.827Z,26.27
2018-03-24T05:47:53.463Z,27.25
2018-03-24T05:50:20.135Z,31.12
2018-03-24T05:52:46.899Z,23.38
2018-03-24T05:55:13.540Z,27.25
2018-03-24T05:57:41.136Z,38.90
2018-03-24T06:00:07.907Z,26.23
2018-03-24T06:02:35.300Z,30.83
2018-03-24T06:05:01.951Z,28.52
2018-03-24T06:07:28.605Z,29.02
2018-03-24T06:09:56.063Z,34.17
2018-03-24T06:12:23.518Z,30.83
2018-03-24T06:14:50.217Z,29.48
2018-03-24T06:17:16.879Z,30.48
2018-03-24T06:19:43.524Z,34.63
2018-03-24T06:22:10.186Z,29.48
2018-03-24T06:24:36.876Z,30.60
2018-03-24T06:27:03.568Z,31.73
2018-03-24T06:29:30.203Z,28.05
2018-03-24T06:31:56.884Z,32.85
2018-03-24T06:34:23.570Z,25.40
2018-03-24T06:36:50.231Z,25.80
2018-03-24T06:39:16.907Z,34.90
2018-03-24T06:41:43.582Z,32.10
2018-03-24T06:44:10.243Z,36.35
2018-03-24T06:46:37.632Z,28.43
2018-03-24T06:49:05.048Z,29.83
2018-03-24T06:51:32.503Z,30.37
2018-03-24T06:53:59.177Z,28.50
2018-03-24T06:56:26.620Z,25.20
2018-03-24T06:58:54.067Z,28.23
2018-03-24T07:01:20.718Z,22.97
2018-03-24T07:03:47.419Z,29.97
2018-03-24T07:06:14.113Z,27.40
2018-03-24T07:08:41.528Z,23.23
2018-03-24T07:11:08.207Z,24.10
2018-03-24T07:13:35.771Z,20.10
2018-03-24T07:16:04.746Z,22.93
2018-03-24T07:18:32.229Z,20.23
2018-03-24T07:20:59.402Z,22.93
2018-03-24T07:23:27.383Z,19.20
2018-03-24T07:25:54.724Z,20.37
2018-03-24T07:28:23.057Z,17.30
2018-03-24T07:30:50.844Z,19.00
2018-03-24T07:33:20.509Z,16.43
2018-03-24T07:35:49.328Z,14.40
2018-03-24T07:38:17.241Z,17.13
2018-03-24T07:40:44.230Z,17.43
2018-03-24T07:43:11.381Z,15.53
2018-03-24T07:45:40.168Z,16.40
2018-03-24T07:48:07.246Z,18.27
2018-03-24T07:50:34.911Z,16.97
2018-03-24T07:53:03.298Z,18.43
2018-03-24T07:55:31.424Z,17.30
2018-03-24T07:58:00.495Z,18.37
2018-03-24T08:00:27.969Z,15.30
2018-03-24T08:02:54.802Z,16.10
2018-03-24T08:05:22.387Z,16.43
2018-03-24T08:07:50.745Z,15.87
2018-03-24T08:10:17.586Z,15.73
2018-03-24T08:12:45.910Z,16.80
2018-03-24T08:15:13.473Z,17.93
2018-03-24T08:17:40.456Z,15.43
2018-03-24T08:20:07.456Z,15.80
2018-03-24T08:22:35.008Z,14.60
2018-03-24T08:25:02.085Z,14.13
2018-03-24T08:27:29.491Z,15.43
2018-03-24T08:29:56.147Z,14.90
2018-03-24T08:32:23.040Z,16.63
2018-03-24T08:34:49.788Z,13.90
2018-03-24T08:37:17.206Z,15.20
2018-03-24T08:39:44.968Z,13.97
2018-03-24T08:42:11.840Z,13.37
2018-03-24T08:44:40.988Z,14.23
2018-03-24T08:47:07.716Z,13.67
2018-03-24T08:49:34.545Z,13.40
2018-03-24T08:52:02.107Z,13.60
2018-03-24T08:54:29.735Z,12.43
2018-03-24T08:56:57.989Z,13.33
2018-03-24T08:59:25.507Z,13.23
2018-03-24T09:01:53.428Z,13.00
2018-03-24T09:04:20.133Z,13.17
2018-03-24T09:06:47.632Z,12.60
2018-03-24T09:09:15.317Z,12.13
2018-03-24T09:11:42.875Z,11.10
2018-03-24T09:14:11.000Z,12.77
2018-03-24T09:16:38.615Z,11.87
2018-03-24T09:19:05.444Z,13.00
2018-03-24T09:21:33.496Z,13.80
2018-03-24T09:24:00.248Z,12.37
2018-03-24T09:26:29.170Z,12.80
2018-03-24T09:28:56.084Z,12.27
2018-03-24T09:31:23.920Z,12.53
2018-03-24T09:33:51.178Z,12.03
2018-03-24T09:36:18.966Z,13.27
2018-03-24T09:38:46.171Z,13.03
2018-03-24T09:41:13.161Z,11.97
2018-03-24T09:43:40.360Z,13.40
2018-03-24T09:46:07.624Z,13.40
2018-03-24T09:48:35.268Z,13.70
2018-03-24T09:51:02.486Z,11.77
2018-03-24T09:53:29.648Z,12.33
2018-03-24T09:55:56.467Z,12.23
2018-03-24T09:58:23.612Z,10.70
2018-03-24T10:00:50.805Z,13.33
2018-03-24T10:03:18.140Z,11.30
2018-03-24T10:05:46.110Z,10.97
2018-03-24T10:08:13.964Z,11.97
2018-03-24T10:10:42.064Z,12.30
2018-03-24T10:13:08.836Z,10.30
2018-03-24T10:15:36.485Z,8.50
2018-03-24T10:18:03.266Z,9.13
2018-03-24T10:23:49.673Z,6.57
2018-03-24T10:26:16.601Z,6.17
2018-03-24T10:28:44.816Z,8.17
2018-03-24T10:31:12.134Z,6.50
2018-03-24T10:33:45.600Z,6.83
2018-03-24T10:36:12.789Z,6.90
2018-03-24T10:38:39.877Z,6.63
2018-03-24T10:41:07.085Z,7.10
2018-03-24T10:43:38.640Z,8.10
2018-03-24T10:46:07.271Z,8.63
2018-03-24T10:48:34.173Z,7.77
2018-03-24T10:51:01.937Z,6.10
2018-03-24T10:53:29.497Z,6.67
2018-03-24T10:55:56.750Z,8.07
2018-03-24T10:58:24.517Z,7.97
2018-03-24T11:00:58.118Z,7.67
2018-03-24T11:03:24.961Z,8.20
2018-03-24T11:05:51.805Z,7.23
2018-03-24T11:08:19.468Z,6.93
2018-03-24T11:10:47.259Z,6.60
2018-03-24T11:13:14.078Z,6.83
2018-03-24T11:15:40.922Z,7.60
2018-03-24T11:18:12.376Z,6.93
2018-03-24T11:20:39.941Z,7.40
2018-03-24T11:23:08.110Z,7.60
2018-03-24T11:25:40.207Z,6.80
2018-03-24T11:28:07.125Z,8.23
2018-03-24T11:30:38.067Z,7.63
2018-03-24T11:33:05.326Z,7.50
2018-03-24T11:35:32.816Z,7.80
2018-03-24T11:38:00.030Z,7.73
2018-03-24T11:40:27.996Z,8.03
2018-03-24T11:42:55.046Z,7.67
2018-03-24T11:45:21.890Z,6.70
2018-03-24T11:47:49.860Z,5.97
2018-03-24T11:50:16.762Z,6.20
2018-03-24T11:52:43.548Z,6.20
2018-03-24T11:55:11.115Z,6.30
2018-03-24T11:57:40.511Z,6.87
2018-03-24T12:00:10.268Z,6.67
2018-03-24T12:02:37.075Z,6.70
2018-03-24T12:05:04.627Z,7.23
2018-03-24T12:07:31.676Z,6.50
2018-03-24T12:09:58.519Z,6.87
2018-03-24T12:12:25.376Z,6.90
2018-03-24T12:14:52.106Z,7.67
2018-03-24T12:17:19.887Z,7.73
2018-03-24T12:19:57.364Z,8.17
2018-03-24T12:22:29.303Z,8.50
2018-03-24T12:24:56.896Z,9.13
2018-03-24T12:27:24.555Z,8.80
2018-03-24T12:29:51.497Z,7.50
2018-03-24T12:32:19.172Z,7.47
2018-03-24T12:34:46.619Z,8.47
2018-03-24T12:37:13.365Z,7.67
2018-03-24T12:39:40.388Z,7.53
2018-03-24T12:42:08.900Z,6.93
2018-03-24T12:44:35.940Z,7.33
2018-03-24T12:47:03.399Z,8.47
2018-03-24T12:49:39.559Z,9.07
2018-03-24T12:52:19.407Z,7.97
2018-03-24T12:54:47.081Z,7.57
2018-03-24T12:57:14.225Z,8.60
2018-03-24T12:59:50.487Z,7.47
2018-03-24T13:02:19.338Z,9.60
2018-03-24T13:04:46.941Z,9.77
2018-03-24T13:07:18.609Z,8.73
2018-03-24T13:09:45.542Z,9.33
2018-03-24T13:12:17.097Z,9.43
2018-03-24T13:14:50.158Z,8.67
2018-03-24T13:17:18.368Z,9.27
2018-03-24T13:19:46.254Z,7.93
2018-03-24T13:22:15.860Z,9.03
2018-03-24T13:27:44.161Z,9.10
2018-03-24T13:30:10.988Z,8.90
2018-03-24T13:32:42.023Z,7.90
2018-03-24T13:35:09.898Z,9.40
2018-03-24T13:37:36.739Z,7.33
2018-03-24T13:40:03.682Z,7.43
2018-03-24T13:42:31.242Z,9.33
2018-03-24T13:44:59.014Z,9.40
2018-03-24T13:47:26.772Z,8.63
2018-03-24T13:49:53.822Z,8.50
2018-03-24T13:52:37.049Z,8.77
2018-03-24T13:55:17.616Z,8.10
2018-03-24T13:57:45.180Z,9.87
2018-03-24T14:00:12.532Z,9.33
2018-03-24T14:05:52.509Z,7.90
2018-03-24T14:08:24.065Z,7.40
2018-03-24T14:11:03.805Z,8.77
2018-03-24T14:16:23.393Z,8.70
2018-03-24T14:19:08.196Z,9.30
2018-03-24T14:21:34.842Z,9.43
2018-03-24T14:24:18.475Z,9.07
2018-03-24T14:27:02.490Z,9.47
2018-03-24T14:29:29.962Z,8.37
2018-03-24T14:34:55.096Z,9.20
2018-03-24T14:37:21.504Z,10.27
2018-03-24T14:39:48.172Z,11.07
2018-03-24T14:42:14.593Z,9.23
2018-03-24T14:44:52.421Z,9.83
2018-03-24T14:47:19.478Z,10.87
2018-03-24T14:49:46.650Z,11.03
2018-03-24T14:52:18.188Z,9.80
2018-03-24T14:54:44.582Z,11.63
2018-03-24T14:57:11.304Z,10.90
2018-03-24T15:02:35.515Z,11.07
2018-03-24T15:05:02.116Z,11.63
2018-03-24T15:07:28.774Z,12.20
2018-03-24T15:09:56.188Z,11.37
2018-03-24T15:12:23.559Z,12.33
2018-03-24T15:14:56.088Z,11.87
2018-03-24T15:17:22.566Z,12.40
2018-03-24T15:20:11.590Z,11.07
2018-03-24T15:28:44.280Z,9.83
2018-03-24T15:31:35.516Z,11.13
2018-03-24T15:34:14.254Z,10.13
2018-03-24T15:36:43.873Z,11.87
2018-03-24T15:39:11.132Z,9.40
2018-03-24T15:41:39.889Z,11.33
2018-03-24T15:44:06.783Z,10.30
2018-03-24T15:46:35.159Z,10.17
2018-03-24T15:49:12.836Z,11.50
2018-03-24T15:51:39.279Z,10.50
2018-03-24T15:54:05.863Z,12.07
2018-03-24T15:59:31.520Z,11.50
2018-03-24T16:01:58.017Z,11.37
2018-03-24T16:04:47.227Z,10.33
2018-03-24T16:07:13.688Z,11.63
2018-03-24T16:13:00.601Z,10.13
2018-03-24T16:15:27.055Z,10.67
2018-03-24T16:17:53.480Z,11.30
2018-03-24T16:20:19.883Z,11.13
2018-03-24T16:22:46.269Z,10.20
2018-03-24T16:25:13.483Z,10.83
2018-03-24T16:27:40.896Z,11.40
2018-03-24T16:30:07.344Z,10.33
2018-03-24T16:32:38.722Z,9.20
2018-03-24T16:35:05.135Z,10.90
2018-03-24T16:37:36.631Z,13.20
2018-03-24T16:40:03.046Z,12.13
2018-03-24T16:42:29.508Z,8.03
2018-03-24T16:44:55.951Z,11.70
2018-03-24T16:47:23.132Z,8.60
2018-03-24T16:49:51.624Z,9.10
2018-03-24T16:52:18.792Z,10.57
2018-03-24T16:54:45.233Z,10.73
2018-03-24T16:57:11.643Z,9.03
2018-03-24T16:59:38.048Z,11.63
2018-03-24T17:02:04.494Z,11.53
2018-03-24T17:04:30.915Z,11.57
2018-03-24T17:06:58.077Z,9.93
2018-03-24T17:09:25.380Z,10.93
2018-03-24T17:11:51.805Z,9.93
2018-03-24T17:14:18.237Z,10.03
2018-03-24T17:16:44.635Z,11.47
2018-03-24T17:19:11.035Z,8.80
2018-03-24T17:21:37.444Z,10.33
2018-03-24T17:24:03.877Z,9.83
2018-03-24T17:26:30.276Z,11.00
2018-03-24T17:28:56.694Z,10.40
2018-03-24T17:31:23.840Z,11.80
2018-03-24T17:33:50.991Z,10.97
2018-03-24T17:36:17.436Z,10.37
2018-03-24T17:38:43.846Z,8.73
2018-03-24T17:41:10.244Z,10.27
2018-03-24T17:43:36.647Z,12.50
2018-03-24T17:46:10.047Z,13.80
2018-03-24T17:48:36.445Z,12.60
2018-03-24T17:51:03.656Z,11.37
2018-03-24T17:53:31.050Z,13.13
2018-03-24T17:55:57.449Z,11.77
2018-03-24T17:58:23.849Z,12.63
2018-03-24T18:00:51.019Z,13.43
2018-03-24T18:03:17.423Z,15.20
2018-03-24T18:05:44.588Z,16.00
2018-03-24T18:08:10.965Z,12.90
2018-03-24T18:10:38.156Z,13.80
2018-03-24T18:13:05.335Z,16.53
2018-03-24T18:15:31.764Z,16.70
2018-03-24T18:17:58.188Z,15.47
2018-03-24T18:20:24.619Z,11.20
2018-03-24T18:22:51.055Z,13.07
2018-03-24T18:25:17.483Z,10.73
2018-03-24T18:27:44.603Z,11.83
2018-03-24T18:30:11.121Z,8.97
2018-03-24T18:32:37.540Z,12.90
2018-03-24T18:35:03.991Z,11.57
2018-03-24T18:37:30.428Z,8.53
2018-03-24T18:39:57.596Z,8.73
2018-03-24T18:42:24.012Z,7.60
2018-03-24T18:44:50.440Z,6.60
2018-03-24T18:47:16.869Z,6.50
2018-03-24T18:49:43.292Z,5.83
2018-03-24T18:52:10.710Z,6.33
2018-03-24T18:54:38.374Z,5.90
2018-03-24T18:57:05.540Z,5.57
2018-03-24T18:59:31.930Z,7.03
2018-03-24T19:01:58.341Z,5.70
2018-03-24T19:04:24.742Z,13.33
2018-03-24T19:06:51.179Z,6.77
2018-03-24T19:09:17.574Z,5.60
2018-03-24T19:11:44.729Z,5.07
2018-03-24T19:14:11.867Z,6.80
2018-03-24T19:16:39.028Z,5.20
2018-03-24T19:19:06.190Z,4.70
2018-03-24T19:21:33.411Z,4.40
2018-03-24T19:23:59.827Z,4.87
2018-03-24T19:26:26.215Z,10.13
2018-03-24T19:28:53.772Z,8.33
2018-03-24T19:31:20.956Z,10.07
2018-03-24T19:33:47.407Z,15.73
2018-03-24T19:36:13.827Z,12.60
2018-03-24T19:38:40.244Z,11.33
2018-03-24T19:41:06.653Z,10.37
2018-03-24T19:43:33.039Z,9.80
2018-03-24T19:45:59.486Z,6.80
2018-03-24T19:48:25.860Z,6.87
2018-03-24T19:50:53.031Z,5.17
2018-03-24T19:53:19.460Z,9.73
2018-03-24T19:55:45.922Z,4.70
2018-03-24T19:58:12.341Z,6.17
2018-03-24T20:00:38.756Z,4.97
2018-03-24T20:03:05.887Z,7.60
2018-03-24T20:05:32.334Z,5.00
2018-03-24T20:07:59.499Z,5.53
2018-03-24T20:10:25.963Z,5.30
2018-03-24T20:12:52.387Z,4.73
2018-03-24T20:15:22.702Z,4.63
2018-03-24T20:17:49.166Z,5.40
2018-03-24T20:20:15.555Z,4.97
2018-03-24T20:22:42.023Z,4.90
2018-03-24T20:25:08.456Z,4.90
2018-03-24T20:27:34.917Z,5.63
2018-03-24T20:30:01.332Z,5.10
2018-03-24T20:32:27.737Z,4.47
2018-03-24T20:34:54.140Z,4.93
2018-03-24T20:37:20.542Z,5.03
2018-03-24T20:39:46.966Z,5.90
2018-03-24T20:42:13.614Z,7.20
2018-03-24T20:44:40.104Z,7.20
2018-03-24T20:47:07.261Z,5.10
2018-03-24T20:49:33.674Z,5.30
2018-03-24T20:52:00.837Z,8.02
2018-03-24T20:54:27.267Z,8.25
2018-03-24T20:56:54.420Z,12.10
2018-03-24T20:59:21.560Z,6.60
2018-03-24T21:01:48.712Z,6.30
2018-03-24T21:04:16.556Z,12.50
2018-03-24T21:06:43.004Z,7.83
2018-03-24T21:09:09.419Z,7.53
2018-03-24T21:11:36.646Z,6.07
2018-03-24T21:14:03.094Z,5.83
2018-03-24T21:16:29.552Z,6.50
2018-03-24T21:18:56.780Z,10.75
2018-03-24T21:21:23.189Z,8.45
2018-03-24T21:23:49.589Z,10.82
2018-03-24T21:26:16.787Z,11.87
2018-03-24T21:28:43.176Z,8.43
2018-03-24T21:31:10.330Z,8.47
2018-03-24T21:33:37.452Z,6.80
2018-03-24T21:36:03.915Z,5.97
2018-03-24T21:38:31.075Z,10.30
2018-03-24T21:40:57.480Z,8.05
2018-03-24T21:43:23.899Z,7.75
2018-03-24T21:45:50.322Z,8.75
2018-03-24T21:48:16.746Z,12.07
2018-03-24T21:50:43.191Z,10.70
2018-03-24T21:53:11.565Z,8.30
2018-03-24T21:55:37.960Z,6.22
2018-03-24T21:58:04.363Z,6.73
2018-03-24T22:00:30.822Z,11.23
2018-03-24T22:02:57.987Z,8.35
2018-03-24T22:05:24.384Z,6.18
2018-03-24T22:07:50.789Z,9.37
2018-03-24T22:10:17.231Z,6.27
2018-03-24T22:12:43.638Z,6.27
2018-03-24T22:15:10.064Z,5.37
2018-03-24T22:17:36.501Z,11.18
2018-03-24T22:20:03.484Z,8.50
2018-03-24T22:22:31.961Z,7.50
2018-03-24T22:24:58.448Z,8.02
2018-03-24T22:27:24.878Z,6.93
2018-03-24T22:29:51.373Z,8.32
2018-03-24T22:32:18.601Z,8.10
2018-03-24T22:34:45.081Z,8.27
2018-03-24T22:37:11.568Z,9.43
2018-03-24T22:39:38.088Z,6.73
2018-03-24T22:42:05.257Z,4.80
2018-03-24T22:44:31.690Z,3.95
2018-03-24T22:46:58.120Z,3.95
2018-03-24T22:49:24.589Z,4.75
2018-03-24T22:51:51.013Z,12.73
2018-03-24T22:54:17.433Z,6.93
2018-03-24T22:56:43.878Z,7.00
2018-03-24T22:59:10.325Z,6.37
2018-03-24T23:01:36.789Z,7.47
2018-03-24T23:04:03.969Z,4.67
2018-03-24T23:06:30.405Z,5.07
2018-03-24T23:08:56.837Z,5.53
2018-03-24T23:11:27.276Z,4.37
2018-03-24T23:13:53.773Z,4.40
2018-03-24T23:16:20.203Z,5.55
2018-03-24T23:18:47.384Z,6.25
2018-03-24T23:21:21.948Z,5.30
2018-03-24T23:23:49.145Z,10.25
2018-03-24T23:26:16.654Z,5.97
2018-03-24T23:28:43.091Z,5.12
2018-03-24T23:31:09.511Z,6.83
2018-03-24T23:33:39.949Z,4.50
2018-03-24T23:36:07.120Z,5.53
2018-03-24T23:38:34.308Z,6.40
2018-03-24T23:41:00.784Z,3.92
2018-03-24T23:43:27.225Z,5.65
2018-03-24T23:46:02.776Z,5.78
2018-03-24T23:48:29.218Z,8.20
2018-03-24T23:51:06.682Z,8.73
2018-03-24T23:53:33.128Z,5.68
2018-03-24T23:55:59.576Z,6.05
2018-03-24T23:58:26.025Z,9.55
